createdAt,value
2018-05-25T00:02:24.316Z,11.70
2018-05-25T00:04:51.053Z,13.27
2018-05-25T00:07:17.780Z,13.17
2018-05-25T00:09:44.544Z,12.33
2018-05-25T00:12:11.272Z,12.93
2018-05-25T00:14:38.025Z,12.30
2018-05-25T00:17:04.764Z,13.53
2018-05-25T00:19:31.499Z,13.53
2018-05-25T00:21:58.227Z,13.17
2018-05-25T00:24:24.985Z,13.93
2018-05-25T00:26:51.729Z,14.33
2018-05-25T00:29:18.624Z,13.13
2018-05-25T00:31:45.378Z,13.23
2018-05-25T00:34:12.123Z,13.97
2018-05-25T00:36:38.864Z,13.87
2018-05-25T00:39:05.608Z,15.27
2018-05-25T00:41:32.347Z,14.13
2018-05-25T00:43:59.072Z,12.33
2018-05-25T00:46:25.812Z,14.10
2018-05-25T00:48:52.555Z,13.83
2018-05-25T00:51:19.332Z,13.70
2018-05-25T00:53:46.068Z,13.37
2018-05-25T00:56:12.807Z,13.40
2018-05-25T00:58:39.529Z,12.83
2018-05-25T01:01:06.285Z,12.77
2018-05-25T01:03:33.008Z,11.10
2018-05-25T01:05:59.762Z,13.03
2018-05-25T01:08:26.495Z,12.27
2018-05-25T01:10:53.221Z,13.53
2018-05-25T01:13:19.991Z,14.17
2018-05-25T01:15:46.837Z,13.33
2018-05-25T01:18:13.675Z,14.33
2018-05-25T01:20:40.403Z,13.57
2018-05-25T01:23:07.140Z,14.57
2018-05-25T01:25:33.868Z,14.23
2018-05-25T01:28:00.596Z,14.13
2018-05-25T01:30:27.331Z,13.17
2018-05-25T01:32:54.126Z,14.80
2018-05-25T01:35:21.199Z,16.10
2018-05-25T01:37:47.933Z,13.93
2018-05-25T01:40:14.655Z,16.00
2018-05-25T01:42:41.394Z,16.23
2018-05-25T01:45:08.224Z,15.47
2018-05-25T01:47:34.992Z,15.43
2018-05-25T01:50:01.812Z,14.27
2018-05-25T01:52:28.646Z,16.07
2018-05-25T01:54:55.372Z,15.30
2018-05-25T01:57:22.094Z,14.57
2018-05-25T01:59:48.830Z,18.50
2018-05-25T02:02:15.548Z,18.80
2018-05-25T02:04:42.272Z,20.50
2018-05-25T02:07:09.092Z,21.43
2018-05-25T02:09:35.831Z,22.37
2018-05-25T02:12:02.576Z,21.60
2018-05-25T02:14:29.315Z,21.50
2018-05-25T02:16:56.040Z,24.73
2018-05-25T02:19:22.799Z,20.60
2018-05-25T02:24:22.731Z,21.03
2018-05-25T02:26:49.468Z,22.40
2018-05-25T02:29:16.191Z,19.80
2018-05-25T02:31:42.923Z,18.40
2018-05-25T02:34:09.656Z,18.97
2018-05-25T02:36:36.431Z,18.80
2018-05-25T02:39:03.159Z,18.07
2018-05-25T02:41:29.915Z,19.33
2018-05-25T02:43:56.643Z,20.03
2018-05-25T02:46:23.363Z,18.47
2018-05-25T02:48:50.100Z,18.37
2018-05-25T02:51:16.877Z,20.13
2018-05-25T02:53:43.619Z,17.00
2018-05-25T02:56:10.364Z,16.70
2018-05-25T02:58:38.021Z,16.20
2018-05-25T03:01:04.745Z,15.43
2018-05-25T03:03:31.487Z,16.30
2018-05-25T03:05:58.211Z,16.83
2018-05-25T03:08:24.932Z,16.87
2018-05-25T03:10:51.669Z,16.63
2018-05-25T03:13:18.401Z,19.27
2018-05-25T03:15:45.129Z,19.97
2018-05-25T03:18:11.871Z,20.20
2018-05-25T03:20:38.600Z,19.87
2018-05-25T03:23:05.419Z,48.97
2018-05-25T03:25:32.167Z,48.50
2018-05-25T03:27:58.887Z,24.50
2018-05-25T03:30:25.619Z,21.47
2018-05-25T03:32:52.382Z,21.83
2018-05-25T03:35:19.101Z,19.37
2018-05-25T03:37:45.825Z,17.87
2018-05-25T03:40:12.562Z,18.70
2018-05-25T03:42:39.298Z,18.13
2018-05-25T03:45:06.019Z,18.00
2018-05-25T03:47:32.815Z,17.57
2018-05-25T03:49:59.540Z,18.07
2018-05-25T03:52:26.264Z,16.83
2018-05-25T03:54:53.002Z,16.10
2018-05-25T03:57:19.722Z,14.90
2018-05-25T03:59:52.458Z,15.77
2018-05-25T04:02:19.210Z,17.90
2018-05-25T04:04:45.946Z,15.47
2018-05-25T04:07:12.708Z,15.27
2018-05-25T04:09:39.444Z,14.47
2018-05-25T04:12:06.168Z,13.43
2018-05-25T04:14:32.892Z,13.83
2018-05-25T04:16:59.644Z,14.60
2018-05-25T04:19:26.361Z,14.10
2018-05-25T04:21:53.092Z,14.10
2018-05-25T04:24:19.834Z,13.83
2018-05-25T04:26:46.568Z,16.10
2018-05-25T04:29:13.292Z,15.87
2018-05-25T04:31:40.088Z,17.30
2018-05-25T04:34:06.810Z,14.37
2018-05-25T04:36:33.572Z,14.53
2018-05-25T04:39:00.410Z,15.27
2018-05-25T04:41:27.152Z,15.10
2018-05-25T04:43:53.876Z,15.73
2018-05-25T04:46:20.620Z,15.57
2018-05-25T04:48:47.352Z,14.90
2018-05-25T04:51:14.149Z,16.00
2018-05-25T04:53:40.963Z,15.90
2018-05-25T04:56:07.690Z,16.33
2018-05-25T04:58:34.429Z,15.40
2018-05-25T05:01:01.168Z,15.43
2018-05-25T05:03:27.891Z,15.13
2018-05-25T05:05:54.655Z,15.37
2018-05-25T05:08:21.383Z,15.10
2018-05-25T05:10:48.118Z,15.00
2018-05-25T05:13:14.835Z,14.53
2018-05-25T05:15:41.625Z,14.23
2018-05-25T05:18:08.361Z,13.53
2018-05-25T05:20:35.129Z,12.80
2018-05-25T05:23:02.000Z,12.90
2018-05-25T05:25:28.687Z,12.70
2018-05-25T05:27:55.411Z,12.30
2018-05-25T05:30:22.161Z,12.00
2018-05-25T05:32:48.880Z,12.30
2018-05-25T05:35:15.610Z,12.17
2018-05-25T05:37:42.346Z,11.77
2018-05-25T05:40:09.080Z,12.83
2018-05-25T05:42:35.870Z,11.93
2018-05-25T05:45:02.612Z,12.97
2018-05-25T05:47:29.340Z,11.60
2018-05-25T05:49:56.064Z,12.20
2018-05-25T05:52:22.801Z,12.83
2018-05-25T05:54:49.563Z,11.70
2018-05-25T05:57:16.288Z,12.03
2018-05-25T05:59:43.024Z,12.90
2018-05-25T06:02:09.755Z,11.80
2018-05-25T06:04:36.481Z,13.50
2018-05-25T06:07:03.273Z,12.13
2018-05-25T06:09:29.999Z,13.37
2018-05-25T06:11:56.721Z,11.60
2018-05-25T06:14:23.487Z,11.63
2018-05-25T06:16:50.223Z,13.13
2018-05-25T06:19:16.966Z,13.03
2018-05-25T06:21:43.709Z,13.77
2018-05-25T06:24:10.436Z,12.90
2018-05-25T06:26:37.189Z,12.30
2018-05-25T06:29:03.924Z,12.70
2018-05-25T06:31:30.674Z,14.63
2018-05-25T06:33:57.404Z,15.33
2018-05-25T06:36:24.150Z,14.80
2018-05-25T06:38:50.885Z,13.80
2018-05-25T06:41:17.612Z,18.73
2018-05-25T06:43:44.476Z,15.10
2018-05-25T06:46:11.196Z,16.63
2018-05-25T06:48:37.935Z,15.40
2018-05-25T06:51:04.676Z,16.43
2018-05-25T06:53:31.439Z,20.83
2018-05-25T06:55:58.159Z,19.40
2018-05-25T06:58:24.900Z,18.60
2018-05-25T07:00:52.003Z,17.53
2018-05-25T07:03:18.731Z,16.70
2018-05-25T07:05:45.545Z,20.20
2018-05-25T07:08:12.267Z,19.50
2018-05-25T07:10:38.987Z,19.50
2018-05-25T07:13:05.729Z,20.00
2018-05-25T07:15:32.463Z,18.40
2018-05-25T07:17:59.191Z,16.27
2018-05-25T07:20:25.927Z,16.77
2018-05-25T07:22:52.643Z,20.90
2018-05-25T07:25:19.467Z,20.73
2018-05-25T07:27:46.565Z,19.70
2018-05-25T07:30:13.511Z,19.27
2018-05-25T07:32:40.302Z,21.40
2018-05-25T07:35:07.057Z,19.37
2018-05-25T07:37:33.879Z,23.10
2018-05-25T07:40:00.603Z,20.97
2018-05-25T07:42:27.376Z,21.60
2018-05-25T07:44:54.094Z,22.73
2018-05-25T07:47:20.848Z,23.37
2018-05-25T07:49:47.588Z,20.63
2018-05-25T07:52:14.316Z,18.40
2018-05-25T07:54:41.048Z,18.30
2018-05-25T07:57:07.781Z,19.37
2018-05-25T07:59:34.579Z,20.60
2018-05-25T08:02:01.314Z,17.97
2018-05-25T08:04:28.139Z,19.27
2018-05-25T08:06:54.875Z,18.17
2018-05-25T08:09:21.711Z,20.93
2018-05-25T08:11:49.385Z,18.73
2018-05-25T08:14:16.107Z,16.27
2018-05-25T08:16:42.839Z,20.13
2018-05-25T08:19:09.599Z,18.73
2018-05-25T08:21:36.339Z,20.20
2018-05-25T08:24:03.065Z,19.57
2018-05-25T08:26:29.821Z,20.53
2018-05-25T08:28:56.545Z,21.77
2018-05-25T08:31:23.299Z,20.20
2018-05-25T08:33:50.121Z,19.30
2018-05-25T08:36:16.881Z,18.70
2018-05-25T08:38:43.604Z,18.20
2018-05-25T08:41:10.356Z,17.67
2018-05-25T08:43:37.100Z,17.90
2018-05-25T08:46:03.820Z,44.63
2018-05-25T08:48:30.570Z,23.63
2018-05-25T08:50:57.296Z,19.87
2018-05-25T08:53:24.066Z,19.63
2018-05-25T08:55:50.800Z,17.67
2018-05-25T08:58:17.524Z,20.70
2018-05-25T09:00:44.262Z,18.53
2018-05-25T09:03:11.027Z,17.80
2018-05-25T09:05:37.757Z,18.93
2018-05-25T09:08:04.487Z,22.13
2018-05-25T09:10:31.338Z,21.70
2018-05-25T09:12:57.969Z,19.77
2018-05-25T09:15:24.717Z,20.63
2018-05-25T09:17:51.449Z,19.47
2018-05-25T09:20:18.205Z,19.00
2018-05-25T09:22:44.923Z,16.77
2018-05-25T09:25:11.668Z,16.17
2018-05-25T09:27:38.418Z,16.87
2018-05-25T09:30:05.155Z,19.80
2018-05-25T09:32:31.902Z,20.07
2018-05-25T09:34:58.629Z,21.80
2018-05-25T09:37:25.356Z,19.70
2018-05-25T09:39:52.091Z,18.43
2018-05-25T09:42:18.818Z,18.70
2018-05-25T09:44:45.549Z,18.93
2018-05-25T09:47:12.302Z,20.80
2018-05-25T09:49:39.028Z,19.60
2018-05-25T09:52:05.784Z,18.33
2018-05-25T09:54:32.550Z,19.70
2018-05-25T09:56:59.303Z,19.80
2018-05-25T09:59:26.038Z,17.90
2018-05-25T10:01:52.837Z,14.67
2018-05-25T10:04:19.574Z,15.53
2018-05-25T10:06:46.393Z,17.97
2018-05-25T10:09:13.220Z,19.73
2018-05-25T10:11:39.963Z,17.00
2018-05-25T10:14:06.691Z,19.40
2018-05-25T10:16:33.485Z,17.57
2018-05-25T10:19:00.405Z,18.80
2018-05-25T10:21:27.233Z,20.47
2018-05-25T10:23:54.071Z,13.70
2018-05-25T10:26:20.792Z,17.10
2018-05-25T10:28:47.547Z,19.53
2018-05-25T10:31:14.259Z,19.27
2018-05-25T10:33:40.986Z,17.77
2018-05-25T10:36:07.723Z,14.10
2018-05-25T10:38:34.526Z,17.83
2018-05-25T10:41:01.275Z,15.53
2018-05-25T10:43:28.447Z,8.23
2018-05-25T10:45:55.172Z,9.03
2018-05-25T10:48:21.900Z,7.27
2018-05-25T10:50:48.620Z,7.47
2018-05-25T10:53:15.360Z,5.20
2018-05-25T10:55:42.072Z,3.50
2018-05-25T10:58:08.788Z,3.07
2018-05-25T11:00:35.528Z,3.43
2018-05-25T11:03:02.236Z,3.80
2018-05-25T11:05:28.956Z,4.33
2018-05-25T11:07:55.988Z,4.13
2018-05-25T11:10:22.756Z,2.40
2018-05-25T11:12:49.876Z,6.37
2018-05-25T11:15:16.609Z,2.13
2018-05-25T11:17:43.375Z,2.80
2018-05-25T11:20:10.095Z,3.10
2018-05-25T11:22:36.847Z,3.20
2018-05-25T11:25:03.567Z,3.40
2018-05-25T11:27:30.343Z,3.60
2018-05-25T11:29:57.064Z,2.50
2018-05-25T11:32:23.792Z,2.90
2018-05-25T11:34:50.507Z,4.10
2018-05-25T11:37:17.231Z,4.90
2018-05-25T11:39:43.953Z,4.77
2018-05-25T11:42:10.697Z,5.00
2018-05-25T11:44:37.422Z,6.13
2018-05-25T11:47:04.151Z,5.47
2018-05-25T11:49:30.875Z,7.00
2018-05-25T11:51:57.634Z,7.93
2018-05-25T11:54:24.392Z,7.63
2018-05-25T11:56:51.121Z,7.77
2018-05-25T11:59:17.861Z,8.23
2018-05-25T12:01:44.602Z,8.37
2018-05-25T12:04:11.334Z,10.60
2018-05-25T12:06:38.072Z,9.10
2018-05-25T12:09:04.803Z,9.20
2018-05-25T12:11:31.523Z,10.27
2018-05-25T12:13:58.309Z,10.30
2018-05-25T12:16:25.043Z,11.50
2018-05-25T12:18:51.782Z,11.47
2018-05-25T12:21:18.520Z,18.43
2018-05-25T12:23:45.264Z,18.70
2018-05-25T12:26:11.989Z,11.70
2018-05-25T12:28:38.727Z,12.60
2018-05-25T12:31:05.485Z,11.13
2018-05-25T12:33:32.215Z,11.43
2018-05-25T12:35:58.955Z,13.20
2018-05-25T12:38:25.707Z,13.23
2018-05-25T12:40:52.445Z,11.97
2018-05-25T12:43:19.171Z,11.90
2018-05-25T12:45:45.935Z,10.10
2018-05-25T12:48:12.771Z,9.30
2018-05-25T12:50:39.504Z,8.10
2018-05-25T12:53:06.244Z,6.77
2018-05-25T12:55:32.988Z,7.60
2018-05-25T12:57:59.710Z,6.40
2018-05-25T13:00:26.434Z,7.30
2018-05-25T13:02:53.159Z,7.70
2018-05-25T13:05:19.964Z,6.57
2018-05-25T13:07:46.843Z,9.50
2018-05-25T13:10:13.632Z,6.10
2018-05-25T13:12:40.363Z,5.40
2018-05-25T13:15:07.117Z,5.50
2018-05-25T13:17:33.829Z,4.90
2018-05-25T13:20:00.567Z,5.10
2018-05-25T13:22:27.289Z,4.60
2018-05-25T13:24:53.999Z,4.27
2018-05-25T13:27:20.737Z,4.53
2018-05-25T13:29:47.465Z,3.87
2018-05-25T13:32:14.185Z,4.80
2018-05-25T13:34:40.911Z,4.63
2018-05-25T13:37:07.637Z,5.27
2018-05-25T13:39:34.421Z,5.07
2018-05-25T13:42:01.251Z,4.50
2018-05-25T13:44:28.004Z,4.43
2018-05-25T13:46:54.840Z,4.80
2018-05-25T13:49:21.602Z,3.83
2018-05-25T13:51:48.332Z,4.20
2018-05-25T13:54:15.052Z,4.77
2018-05-25T13:56:41.800Z,4.47
2018-05-25T13:59:08.544Z,4.00
2018-05-25T14:01:35.269Z,3.50
2018-05-25T14:04:01.992Z,4.63
2018-05-25T14:06:28.729Z,3.80
2018-05-25T14:08:55.440Z,5.27
2018-05-25T14:11:22.253Z,4.00
2018-05-25T14:13:49.044Z,3.43
2018-05-25T14:16:16.192Z,3.47
2018-05-25T14:18:42.972Z,3.83
2018-05-25T14:21:09.704Z,3.60
2018-05-25T14:23:36.456Z,2.90
2018-05-25T14:26:03.189Z,3.60
2018-05-25T14:28:29.930Z,3.13
2018-05-25T14:30:56.680Z,2.93
2018-05-25T14:33:23.530Z,2.97
2018-05-25T14:35:50.248Z,5.77
2018-05-25T14:38:16.972Z,3.60
2018-05-25T14:40:43.708Z,3.63
2018-05-25T14:43:10.435Z,3.40
2018-05-25T14:45:37.152Z,2.87
2018-05-25T14:48:03.879Z,3.30
2018-05-25T14:50:30.703Z,2.50
2018-05-25T14:52:57.419Z,3.03
2018-05-25T14:55:24.156Z,3.00
2018-05-25T14:57:50.884Z,2.40
2018-05-25T15:00:17.617Z,3.30
2018-05-25T15:02:44.351Z,2.50
2018-05-25T15:05:11.063Z,3.13
2018-05-25T15:07:38.115Z,3.03
2018-05-25T15:10:04.921Z,2.73
2018-05-25T15:12:31.672Z,2.37
2018-05-25T15:14:58.408Z,1.90
2018-05-25T15:17:25.140Z,2.13
2018-05-25T15:19:51.860Z,2.07
2018-05-25T15:22:18.580Z,5.50
2018-05-25T15:24:45.313Z,2.10
2018-05-25T15:27:12.027Z,2.47
2018-05-25T15:29:38.847Z,2.13
2018-05-25T15:32:05.614Z,2.67
2018-05-25T15:34:32.328Z,3.00
2018-05-25T15:36:59.048Z,2.60
2018-05-25T15:39:25.819Z,2.80
2018-05-25T15:41:52.581Z,3.63
2018-05-25T15:44:19.299Z,5.17
2018-05-25T15:46:46.035Z,3.00
2018-05-25T15:49:12.755Z,3.13
2018-05-25T15:51:39.475Z,2.60
2018-05-25T15:54:06.204Z,2.80
2018-05-25T15:56:33.243Z,5.30
2018-05-25T15:59:00.039Z,3.10
2018-05-25T16:01:26.777Z,3.10
2018-05-25T16:03:53.491Z,4.20
2018-05-25T16:06:20.210Z,3.43
2018-05-25T16:08:47.073Z,3.93
2018-05-25T16:11:13.740Z,3.93
2018-05-25T16:13:40.451Z,3.50
2018-05-25T16:16:07.201Z,5.43
2018-05-25T16:18:33.916Z,3.27
2018-05-25T16:21:00.637Z,3.80
2018-05-25T16:23:27.368Z,3.07
2018-05-25T16:25:54.080Z,4.80
2018-05-25T16:28:20.800Z,2.83
2018-05-25T16:30:47.559Z,2.97
2018-05-25T16:33:14.272Z,3.27
2018-05-25T16:35:40.988Z,4.00
2018-05-25T16:38:07.715Z,2.63
2018-05-25T16:40:34.439Z,4.07
2018-05-25T16:43:01.151Z,4.50
2018-05-25T16:45:27.887Z,5.20
2018-05-25T16:47:54.639Z,3.30
2018-05-25T16:50:21.409Z,4.10
2018-05-25T16:52:48.233Z,4.37
2018-05-25T16:55:14.943Z,3.83
2018-05-25T16:57:41.675Z,5.17
2018-05-25T17:00:08.413Z,5.00
2018-05-25T17:02:35.197Z,4.10
2018-05-25T17:05:01.941Z,4.37
2018-05-25T17:07:28.914Z,4.73
2018-05-25T17:09:55.629Z,4.70
2018-05-25T17:12:22.345Z,5.27
2018-05-25T17:14:49.073Z,4.70
2018-05-25T17:17:16.316Z,5.27
2018-05-25T17:19:43.032Z,6.50
2018-05-25T17:22:09.768Z,6.70
2018-05-25T17:24:36.568Z,5.00
2018-05-25T17:27:03.292Z,5.07
2018-05-25T17:29:30.020Z,5.67
2018-05-25T17:31:56.740Z,5.93
2018-05-25T17:34:23.467Z,11.93
2018-05-25T17:36:50.208Z,7.30
2018-05-25T17:39:16.935Z,5.93
2018-05-25T17:41:44.164Z,6.67
2018-05-25T17:44:10.894Z,7.07
2018-05-25T17:46:37.621Z,7.10
2018-05-25T17:49:04.333Z,5.80
2018-05-25T17:51:31.061Z,6.53
2018-05-25T17:53:57.784Z,7.37
2018-05-25T17:56:24.498Z,7.60
2018-05-25T17:58:51.241Z,7.90
2018-05-25T18:01:17.980Z,8.20
2018-05-25T18:03:44.693Z,8.80
2018-05-25T18:06:11.415Z,8.53
2018-05-25T18:08:38.657Z,9.40
2018-05-25T18:11:05.466Z,9.33
2018-05-25T18:13:32.301Z,9.27
2018-05-25T18:15:59.023Z,9.73
2018-05-25T18:18:25.733Z,9.37
2018-05-25T18:20:52.462Z,10.00
2018-05-25T18:23:19.195Z,11.40
2018-05-25T18:25:45.915Z,10.03
2018-05-25T18:28:12.642Z,10.60
2018-05-25T18:30:39.475Z,10.10
2018-05-25T18:33:06.217Z,10.43
2018-05-25T18:35:32.942Z,10.03
2018-05-25T18:37:59.658Z,7.50
2018-05-25T18:40:26.376Z,10.60
2018-05-25T18:42:53.099Z,9.67
2018-05-25T18:45:19.824Z,10.33
2018-05-25T18:47:46.544Z,10.10
2018-05-25T18:50:13.292Z,10.70
2018-05-25T18:52:40.016Z,10.37
2018-05-25T18:55:06.760Z,10.93
2018-05-25T18:57:33.523Z,10.13
2018-05-25T19:00:00.290Z,11.40
2018-05-25T19:02:27.116Z,11.47
2018-05-25T19:04:53.911Z,23.43
2018-05-25T19:07:21.683Z,13.17
2018-05-25T19:09:48.455Z,12.87
2018-05-25T19:12:15.301Z,21.53
2018-05-25T19:14:42.035Z,13.27
2018-05-25T19:17:08.771Z,13.90
2018-05-25T19:19:35.498Z,13.50
2018-05-25T19:22:02.497Z,16.30
2018-05-25T19:24:30.257Z,13.50
2018-05-25T19:26:57.093Z,14.70
2018-05-25T19:29:23.905Z,16.17
2018-05-25T19:31:50.624Z,13.10
2018-05-25T19:34:17.383Z,14.63
2018-05-25T19:36:44.103Z,13.60
2018-05-25T19:39:10.891Z,14.63
2018-05-25T19:41:37.764Z,15.20
2018-05-25T19:44:04.536Z,15.63
2018-05-25T19:46:31.222Z,14.73
2018-05-25T19:48:57.956Z,15.10
2018-05-25T19:51:24.784Z,16.13
2018-05-25T19:53:55.956Z,16.87
2018-05-25T19:56:22.832Z,16.03
2018-05-25T19:58:49.615Z,15.33
2018-05-25T20:01:16.339Z,16.73
2018-05-25T20:03:43.086Z,15.60
2018-05-25T20:06:09.816Z,19.40
2018-05-25T20:08:36.543Z,30.93
2018-05-25T20:11:03.349Z,25.63
2018-05-25T20:13:30.079Z,21.87
2018-05-25T20:15:56.923Z,21.00
2018-05-25T20:18:23.761Z,22.10
2018-05-25T20:20:50.579Z,22.67
2018-05-25T20:23:17.389Z,21.83
2018-05-25T20:25:44.105Z,20.00
2018-05-25T20:28:10.837Z,21.13
2018-05-25T20:30:37.561Z,20.73
2018-05-25T20:33:04.384Z,22.17
2018-05-25T20:35:31.115Z,21.47
2018-05-25T20:37:57.842Z,20.27
2018-05-25T20:40:24.607Z,21.67
2018-05-25T20:42:51.347Z,22.50
2018-05-25T20:45:18.084Z,21.43
2018-05-25T20:47:44.824Z,25.40
2018-05-25T20:50:11.567Z,21.97
2018-05-25T20:52:38.318Z,24.90
2018-05-25T20:55:05.070Z,21.83
2018-05-25T20:57:31.997Z,25.50
2018-05-25T20:59:58.720Z,33.83
2018-05-25T21:02:25.475Z,36.90
2018-05-25T21:04:52.199Z,29.77
2018-05-25T21:07:18.955Z,26.60
2018-05-25T21:09:45.811Z,25.33
2018-05-25T21:12:12.542Z,25.97
2018-05-25T21:14:39.261Z,23.67
2018-05-25T21:17:06.026Z,27.70
2018-05-25T21:19:32.761Z,26.70
2018-05-25T21:21:59.499Z,25.27
2018-05-25T21:24:26.247Z,31.80
2018-05-25T21:26:52.971Z,31.67
2018-05-25T21:29:19.701Z,31.03
2018-05-25T21:31:46.435Z,27.20
2018-05-25T21:34:13.168Z,27.73
2018-05-25T21:36:39.936Z,27.40
2018-05-25T21:39:06.666Z,26.90
2018-05-25T21:41:33.396Z,28.10
2018-05-25T21:44:00.125Z,29.13
2018-05-25T21:46:26.872Z,32.90
2018-05-25T21:48:53.596Z,27.50
2018-05-25T21:51:20.328Z,28.97
2018-05-25T21:53:47.132Z,25.47
2018-05-25T21:56:13.976Z,27.47
2018-05-25T21:58:40.809Z,28.13
2018-05-25T22:01:07.660Z,27.30
2018-05-25T22:03:34.392Z,27.67
2018-05-25T22:06:01.165Z,28.87
2018-05-25T22:08:27.908Z,25.83
2018-05-25T22:10:54.628Z,31.07
2018-05-25T22:13:21.356Z,33.97
2018-05-25T22:15:48.100Z,33.50
2018-05-25T22:18:14.821Z,33.30
2018-05-25T22:20:41.545Z,31.03
2018-05-25T22:23:08.311Z,28.17
2018-05-25T22:25:35.034Z,30.90
2018-05-25T22:28:01.760Z,36.80
2018-05-25T22:30:28.500Z,31.23
2018-05-25T22:32:55.280Z,38.77
2018-05-25T22:35:22.009Z,41.87
2018-05-25T22:37:48.751Z,44.23
2018-05-25T22:40:15.467Z,40.20
2018-05-25T22:42:48.135Z,43.40
2018-05-25T22:45:22.386Z,41.53
2018-05-25T22:47:55.028Z,39.40
2018-05-25T22:50:27.637Z,34.20
2018-05-25T22:52:59.984Z,29.20
2018-05-25T22:55:26.756Z,29.23
2018-05-25T22:57:53.504Z,30.17
2018-05-25T23:00:20.234Z,33.40
2018-05-25T23:02:46.980Z,40.50
2018-05-25T23:05:13.721Z,41.87
2018-05-25T23:07:40.694Z,36.20
2018-05-25T23:10:07.600Z,27.50
2018-05-25T23:12:34.336Z,30.00
2018-05-25T23:15:01.063Z,32.10
2018-05-25T23:17:27.791Z,32.80
2018-05-25T23:19:54.531Z,31.70
2018-05-25T23:22:21.256Z,36.20
2018-05-25T23:24:48.055Z,30.63
2018-05-25T23:27:14.791Z,30.67
2018-05-25T23:29:41.531Z,27.50
2018-05-25T23:32:08.267Z,30.20
2018-05-25T23:34:35.018Z,25.63
2018-05-25T23:37:01.727Z,27.63
2018-05-25T23:39:28.467Z,30.53
2018-05-25T23:41:55.235Z,33.77
2018-05-25T23:44:22.027Z,38.23
2018-05-25T23:46:48.746Z,34.77
2018-05-25T23:49:15.483Z,30.90
2018-05-25T23:51:42.207Z,31.17
2018-05-25T23:54:08.933Z,34.73
2018-05-25T23:56:35.667Z,41.97
2018-05-25T23:59:02.390Z,38.33
